createdAt,value
2023-05-19T00:00:34.359Z,34.11
2023-05-19T00:01:34.275Z,34.09
2023-05-19T00:02:34.401Z,34.06
2023-05-19T00:03:34.392Z,34.03
2023-05-19T00:04:34.404Z,34.03
2023-05-19T00:05:34.489Z,33.98
2023-05-19T00:06:34.531Z,33.91
2023-05-19T00:07:34.572Z,33.91
2023-05-19T00:08:34.657Z,33.93
2023-05-19T00:09:34.670Z,33.93
2023-05-19T00:10:34.758Z,34.00
2023-05-19T00:11:34.757Z,34.00
2023-05-19T00:12:34.821Z,34.05
2023-05-19T00:13:34.813Z,34.05
2023-05-19T00:14:34.840Z,34.07
2023-05-19T00:15:34.921Z,34.06
2023-05-19T00:16:35.067Z,34.04
2023-05-19T00:17:34.978Z,34.09
2023-05-19T00:18:35.023Z,34.10
2023-05-19T00:19:34.992Z,34.18
2023-05-19T00:20:35.074Z,34.19
2023-05-19T00:21:34.985Z,34.23
2023-05-19T00:22:34.970Z,34.24
2023-05-19T00:23:35.004Z,34.20
2023-05-19T00:24:35.015Z,34.15
2023-05-19T00:25:35.069Z,34.14
2023-05-19T00:26:35.141Z,34.10
2023-05-19T00:27:35.160Z,34.14
2023-05-19T00:28:35.140Z,34.22
2023-05-19T00:29:35.172Z,34.24
2023-05-19T00:30:35.143Z,34.29
2023-05-19T00:31:35.219Z,34.31
2023-05-19T00:32:35.227Z,34.31
2023-05-19T00:33:35.157Z,34.37
2023-05-19T00:34:35.119Z,34.41
2023-05-19T00:35:35.150Z,34.38
2023-05-19T00:36:35.145Z,34.39
2023-05-19T00:37:35.153Z,34.42
2023-05-19T00:38:35.183Z,34.40
2023-05-19T00:39:35.157Z,34.40
2023-05-19T00:40:35.231Z,34.46
2023-05-19T00:41:35.180Z,34.52
2023-05-19T00:42:35.146Z,34.52
2023-05-19T00:43:35.166Z,34.46
2023-05-19T00:44:35.162Z,34.46
2023-05-19T00:45:35.148Z,34.41
2023-05-19T00:46:35.194Z,34.44
2023-05-19T00:47:35.239Z,34.50
2023-05-19T00:48:35.177Z,34.51
2023-05-19T00:49:35.152Z,34.49
2023-05-19T00:50:35.268Z,34.45
2023-05-19T00:51:35.146Z,34.41
2023-05-19T00:52:35.177Z,34.39
2023-05-19T00:53:35.240Z,34.39
2023-05-19T00:54:35.262Z,34.41
2023-05-19T00:55:35.321Z,34.49
2023-05-19T00:56:35.334Z,34.56
2023-05-19T00:57:35.306Z,34.63
2023-05-19T00:58:35.281Z,34.62
2023-05-19T00:59:35.297Z,34.57
2023-05-19T01:00:35.506Z,34.53
2023-05-19T01:01:35.414Z,34.49
2023-05-19T01:02:35.451Z,34.44
2023-05-19T01:03:35.728Z,34.47
2023-05-19T01:04:35.333Z,34.50
2023-05-19T01:05:35.320Z,34.49
2023-05-19T01:06:35.333Z,34.49
2023-05-19T01:07:35.321Z,34.51
2023-05-19T01:08:35.299Z,34.53
2023-05-19T01:09:35.347Z,34.56
2023-05-19T01:10:35.314Z,34.58
2023-05-19T01:11:35.339Z,34.56
2023-05-19T01:12:35.352Z,34.53
2023-05-19T01:13:35.313Z,34.49
2023-05-19T01:14:35.332Z,34.47
2023-05-19T01:15:35.348Z,34.49
2023-05-19T01:16:35.435Z,34.44
2023-05-19T01:17:35.398Z,34.41
2023-05-19T01:18:35.393Z,34.38
2023-05-19T01:19:35.402Z,34.42
2023-05-19T01:20:35.402Z,34.42
2023-05-19T01:21:35.428Z,34.42
2023-05-19T01:22:35.420Z,34.40
2023-05-19T01:23:35.410Z,34.39
2023-05-19T01:24:35.436Z,34.42
2023-05-19T01:25:35.445Z,34.46
2023-05-19T01:26:35.415Z,34.52
2023-05-19T01:27:35.464Z,34.53
2023-05-19T01:28:35.412Z,34.52
2023-05-19T01:29:35.419Z,34.54
2023-05-19T01:30:35.524Z,34.50
2023-05-19T01:31:35.449Z,34.49
2023-05-19T01:32:35.479Z,34.51
2023-05-19T01:33:35.437Z,34.54
2023-05-19T01:34:35.427Z,34.64
2023-05-19T01:35:35.434Z,34.71
2023-05-19T01:36:35.431Z,34.71
2023-05-19T01:37:35.477Z,34.68
2023-05-19T01:38:35.466Z,34.68
2023-05-19T01:39:35.516Z,34.68
2023-05-19T01:40:35.484Z,34.68
2023-05-19T01:41:35.484Z,34.66
2023-05-19T01:42:35.516Z,34.68
2023-05-19T01:43:35.524Z,34.63
2023-05-19T01:44:35.530Z,34.63
2023-05-19T01:45:35.538Z,34.62
2023-05-19T01:46:35.822Z,34.57
2023-05-19T01:47:35.544Z,34.61
2023-05-19T01:48:35.533Z,34.66
2023-05-19T01:49:35.524Z,34.71
2023-05-19T01:50:35.527Z,34.70
2023-05-19T01:51:35.520Z,34.67
2023-05-19T01:52:35.543Z,34.62
2023-05-19T01:53:35.521Z,34.59
2023-05-19T01:54:35.543Z,34.53
2023-05-19T01:55:35.537Z,34.50
2023-05-19T01:56:35.536Z,34.51
2023-05-19T01:57:35.519Z,34.50
2023-05-19T01:58:35.502Z,34.51
2023-05-19T01:59:35.540Z,34.50
2023-05-19T02:00:35.523Z,34.48
2023-05-19T02:01:35.565Z,34.56
2023-05-19T02:02:35.624Z,34.62
2023-05-19T02:03:35.518Z,34.67
2023-05-19T02:04:35.547Z,34.65
2023-05-19T02:05:35.561Z,34.69
2023-05-19T02:06:35.559Z,34.72
2023-05-19T02:07:35.544Z,34.74
2023-05-19T02:08:35.534Z,34.80
2023-05-19T02:09:35.529Z,34.81
2023-05-19T02:10:35.534Z,34.78
2023-05-19T02:11:35.525Z,34.76
2023-05-19T02:12:35.536Z,34.81
2023-05-19T02:13:35.543Z,34.83
2023-05-19T02:14:35.552Z,34.81
2023-05-19T02:15:35.557Z,34.80
2023-05-19T02:16:35.546Z,34.85
2023-05-19T02:17:35.596Z,34.89
2023-05-19T02:18:35.580Z,34.93
2023-05-19T02:19:35.585Z,34.93
2023-05-19T02:20:35.661Z,34.90
2023-05-19T02:21:35.612Z,34.85
2023-05-19T02:22:35.618Z,34.78
2023-05-19T02:23:35.621Z,34.75
2023-05-19T02:24:35.608Z,34.71
2023-05-19T02:25:35.621Z,34.77
2023-05-19T02:26:35.636Z,34.86
2023-05-19T02:27:35.616Z,34.91
2023-05-19T02:28:35.630Z,34.90
2023-05-19T02:29:35.657Z,34.88
2023-05-19T02:30:35.668Z,34.85
2023-05-19T02:31:35.728Z,34.89
2023-05-19T02:32:35.700Z,34.90
2023-05-19T02:33:35.673Z,34.84
2023-05-19T02:34:35.689Z,34.83
2023-05-19T02:35:35.743Z,34.83
2023-05-19T02:36:35.715Z,34.79
2023-05-19T02:37:35.748Z,34.76
2023-05-19T02:38:35.711Z,34.79
2023-05-19T02:39:35.727Z,34.81
2023-05-19T02:40:35.713Z,34.88
2023-05-19T02:41:35.758Z,34.94
2023-05-19T02:42:35.765Z,35.01
2023-05-19T02:43:35.794Z,35.05
2023-05-19T02:44:35.804Z,35.04
2023-05-19T02:45:35.827Z,35.03
2023-05-19T02:46:35.878Z,35.11
2023-05-19T02:47:37.090Z,35.15
2023-05-19T02:48:35.856Z,35.17
2023-05-19T02:49:35.985Z,35.22
2023-05-19T02:50:35.868Z,35.21
2023-05-19T02:51:35.891Z,35.23
2023-05-19T02:52:35.962Z,35.19
2023-05-19T02:53:35.944Z,35.22
2023-05-19T02:54:35.966Z,35.16
2023-05-19T02:55:36.003Z,35.17
2023-05-19T02:56:36.017Z,35.17
2023-05-19T02:57:36.078Z,35.17
2023-05-19T02:58:36.024Z,35.17
2023-05-19T02:59:36.069Z,35.20
2023-05-19T03:00:36.081Z,35.28
2023-05-19T03:01:36.197Z,35.34
2023-05-19T03:02:36.223Z,35.40
2023-05-19T03:03:36.294Z,35.45
2023-05-19T03:04:36.189Z,35.49
2023-05-19T03:05:36.206Z,35.53
2023-05-19T03:06:36.238Z,35.62
2023-05-19T03:07:36.254Z,35.58
2023-05-19T03:08:36.281Z,35.52
2023-05-19T03:09:36.305Z,35.46
2023-05-19T03:10:36.323Z,35.51
2023-05-19T03:11:36.354Z,35.49
2023-05-19T03:12:36.349Z,35.50
2023-05-19T03:13:36.364Z,35.50
2023-05-19T03:14:36.363Z,35.46
2023-05-19T03:15:36.401Z,35.43
2023-05-19T03:16:36.518Z,35.46
2023-05-19T03:17:36.533Z,35.48
2023-05-19T03:18:36.534Z,35.51
2023-05-19T03:19:36.454Z,35.61
2023-05-19T03:20:36.515Z,35.66
2023-05-19T03:21:36.549Z,35.71
2023-05-19T03:22:36.549Z,35.73
2023-05-19T03:23:36.590Z,35.80
2023-05-19T03:24:36.624Z,35.85
2023-05-19T03:25:36.691Z,35.92
2023-05-19T03:26:36.724Z,35.96
2023-05-19T03:27:36.751Z,35.95
2023-05-19T03:28:36.814Z,35.99
2023-05-19T03:29:36.871Z,35.99
2023-05-19T03:30:36.941Z,35.97
2023-05-19T03:31:36.992Z,35.94
2023-05-19T03:32:37.075Z,35.92
2023-05-19T03:33:37.052Z,35.92
2023-05-19T03:34:37.074Z,35.89
2023-05-19T03:35:37.111Z,35.86
2023-05-19T03:36:37.181Z,35.86
2023-05-19T03:37:37.189Z,35.89
2023-05-19T03:38:37.257Z,35.89
2023-05-19T03:39:37.293Z,35.97
2023-05-19T03:40:37.374Z,35.98
2023-05-19T03:41:37.399Z,36.00
2023-05-19T03:42:37.429Z,36.00
2023-05-19T03:43:37.469Z,36.04
2023-05-19T03:44:37.527Z,35.99
2023-05-19T03:45:37.650Z,35.95
2023-05-19T03:46:37.665Z,35.94
2023-05-19T03:47:37.728Z,35.94
2023-05-19T03:48:37.758Z,35.95
2023-05-19T03:49:37.777Z,35.97
2023-05-19T03:50:37.836Z,36.00
2023-05-19T03:51:37.911Z,35.95
2023-05-19T03:52:37.927Z,35.96
2023-05-19T03:53:37.980Z,35.93
2023-05-19T03:54:38.037Z,35.85
2023-05-19T03:55:38.067Z,35.84
2023-05-19T03:56:38.112Z,35.86
2023-05-19T03:57:38.114Z,35.82
2023-05-19T03:58:38.161Z,35.76
2023-05-19T03:59:38.182Z,35.70
2023-05-19T04:00:38.182Z,35.67
2023-05-19T04:01:38.268Z,35.65
2023-05-19T04:02:38.398Z,35.67
2023-05-19T04:03:38.311Z,35.68
2023-05-19T04:04:38.305Z,35.65
2023-05-19T04:05:38.317Z,35.63
2023-05-19T04:06:38.341Z,35.64
2023-05-19T04:07:38.313Z,35.67
2023-05-19T04:08:38.379Z,35.71
2023-05-19T04:09:38.414Z,35.68
2023-05-19T04:10:38.427Z,35.65
2023-05-19T04:11:38.455Z,35.60
2023-05-19T04:12:38.443Z,35.62
2023-05-19T04:13:38.528Z,35.64
2023-05-19T04:14:38.544Z,35.68
2023-05-19T04:15:38.576Z,35.68
2023-05-19T04:16:38.595Z,35.74
2023-05-19T04:17:38.664Z,35.75
2023-05-19T04:18:38.684Z,35.76
2023-05-19T04:19:38.686Z,35.72
2023-05-19T04:20:38.724Z,35.70
2023-05-19T04:21:38.715Z,35.67
2023-05-19T04:22:38.732Z,35.71
2023-05-19T04:23:38.778Z,35.79
2023-05-19T04:24:38.887Z,35.82
2023-05-19T04:25:38.812Z,35.81
2023-05-19T04:26:38.851Z,35.81
2023-05-19T04:27:38.931Z,35.77
2023-05-19T04:28:38.868Z,35.75
2023-05-19T04:29:38.865Z,35.78
2023-05-19T04:30:38.920Z,35.87
2023-05-19T04:31:38.990Z,35.93
2023-05-19T04:32:38.991Z,35.95
2023-05-19T04:33:39.008Z,35.94
2023-05-19T04:34:39.017Z,35.97
2023-05-19T04:35:39.063Z,35.97
2023-05-19T04:36:39.062Z,35.98
2023-05-19T04:37:39.127Z,35.99
2023-05-19T04:38:39.133Z,35.98
2023-05-19T04:39:39.161Z,35.87
2023-05-19T04:40:39.192Z,35.83
2023-05-19T04:41:39.312Z,35.80
2023-05-19T04:42:39.232Z,35.76
2023-05-19T04:43:39.234Z,35.79
2023-05-19T04:44:39.306Z,35.84
2023-05-19T04:45:39.290Z,35.89
2023-05-19T04:46:39.344Z,35.94
2023-05-19T04:47:39.393Z,35.91
2023-05-19T04:48:39.386Z,35.94
2023-05-19T04:49:39.439Z,35.98
2023-05-19T04:50:39.475Z,36.05
2023-05-19T04:51:39.491Z,36.09
2023-05-19T04:52:39.545Z,36.16
2023-05-19T04:53:39.579Z,36.29
2023-05-19T04:54:39.631Z,36.67
2023-05-19T04:55:39.660Z,36.73
2023-05-19T04:56:39.718Z,36.98
2023-05-19T04:57:39.741Z,37.05
2023-05-19T04:58:41.905Z,37.12
2023-05-19T04:59:39.843Z,37.13
2023-05-19T05:00:39.916Z,37.14
2023-05-19T05:01:40.030Z,37.18
2023-05-19T05:02:40.009Z,37.20
2023-05-19T05:03:40.096Z,37.23
2023-05-19T05:04:40.015Z,37.25
2023-05-19T05:05:40.049Z,37.26
2023-05-19T05:06:40.053Z,37.29
2023-05-19T05:07:40.075Z,37.28
2023-05-19T05:08:40.138Z,37.29
2023-05-19T05:09:40.156Z,37.29
2023-05-19T05:10:40.149Z,37.32
2023-05-19T05:11:40.158Z,37.36
2023-05-19T05:12:40.181Z,37.32
2023-05-19T05:13:40.204Z,37.28
2023-05-19T05:14:40.319Z,37.29
2023-05-19T05:15:40.249Z,37.27
2023-05-19T05:16:40.341Z,37.30
2023-05-19T05:17:40.284Z,37.25
2023-05-19T05:18:42.222Z,37.29
2023-05-19T05:19:40.281Z,37.28
2023-05-19T05:20:40.296Z,37.30
2023-05-19T05:21:40.373Z,37.30
2023-05-19T05:22:40.266Z,37.26
2023-05-19T05:23:40.254Z,37.28
2023-05-19T05:24:40.276Z,37.28
2023-05-19T05:25:40.231Z,37.27
2023-05-19T05:26:40.224Z,37.26
2023-05-19T05:27:40.205Z,37.23
2023-05-19T05:28:40.190Z,37.23
2023-05-19T05:29:40.201Z,37.13
2023-05-19T05:30:40.183Z,37.14
2023-05-19T05:31:40.185Z,37.20
2023-05-19T05:32:40.265Z,37.27
2023-05-19T05:33:40.181Z,37.32
2023-05-19T05:34:40.145Z,37.42
2023-05-19T05:35:40.142Z,37.52
2023-05-19T05:36:40.140Z,37.56
2023-05-19T05:37:40.148Z,37.63
2023-05-19T05:38:40.150Z,37.79
2023-05-19T05:39:40.137Z,37.75
2023-05-19T05:40:40.137Z,37.90
2023-05-19T05:41:40.156Z,37.96
2023-05-19T05:42:40.103Z,37.92
2023-05-19T05:43:40.101Z,37.90
2023-05-19T05:44:40.101Z,38.07
2023-05-19T05:45:40.121Z,38.11
2023-05-19T05:46:40.063Z,38.05
2023-05-19T05:47:40.112Z,38.10
2023-05-19T05:48:40.058Z,38.20
2023-05-19T05:49:40.072Z,38.19
2023-05-19T05:50:40.052Z,38.26
2023-05-19T05:51:40.710Z,38.39
2023-05-19T05:52:40.052Z,38.34
2023-05-19T05:53:40.008Z,38.48
2023-05-19T05:54:40.025Z,38.37
2023-05-19T05:55:39.996Z,38.34
2023-05-19T05:56:40.019Z,38.31
2023-05-19T05:57:39.997Z,38.35
2023-05-19T05:58:40.010Z,38.47
2023-05-19T05:59:39.994Z,38.50
2023-05-19T06:00:39.965Z,38.59
2023-05-19T06:01:39.977Z,38.64
2023-05-19T06:02:40.082Z,38.59
2023-05-19T06:03:40.104Z,38.61
2023-05-19T06:04:39.941Z,38.76
2023-05-19T06:05:40.008Z,38.58
2023-05-19T06:06:39.944Z,38.58
2023-05-19T06:07:39.940Z,38.65
2023-05-19T06:08:39.936Z,38.64
2023-05-19T06:09:39.924Z,38.67
2023-05-19T06:10:39.952Z,38.55
2023-05-19T06:11:39.924Z,38.52
2023-05-19T06:12:39.865Z,38.52
2023-05-19T06:13:39.900Z,38.47
2023-05-19T06:14:39.899Z,38.40
2023-05-19T06:15:39.910Z,38.33
2023-05-19T06:16:40.024Z,38.27
2023-05-19T06:17:39.894Z,38.25
2023-05-19T06:18:39.882Z,38.23
2023-05-19T06:19:39.865Z,38.19
2023-05-19T06:20:39.832Z,38.13
2023-05-19T06:21:39.835Z,38.07
2023-05-19T06:22:39.817Z,38.08
2023-05-19T06:23:39.796Z,37.99
2023-05-19T06:24:39.814Z,37.94
2023-05-19T06:25:39.779Z,37.82
2023-05-19T06:26:39.807Z,37.78
2023-05-19T06:27:39.790Z,37.72
2023-05-19T06:28:39.765Z,37.78
2023-05-19T06:29:39.762Z,37.85
2023-05-19T06:30:39.752Z,37.82
2023-05-19T06:31:39.789Z,37.83
2023-05-19T06:32:39.767Z,37.81
2023-05-19T06:33:39.755Z,37.77
2023-05-19T06:34:39.717Z,37.75
2023-05-19T06:35:39.741Z,37.71
2023-05-19T06:36:39.728Z,37.68
2023-05-19T06:37:39.681Z,37.66
2023-05-19T06:38:39.691Z,37.65
2023-05-19T06:39:39.699Z,37.66
2023-05-19T06:40:39.676Z,37.77
2023-05-19T06:41:39.689Z,37.85
2023-05-19T06:42:39.670Z,37.96
2023-05-19T06:43:39.675Z,37.82
2023-05-19T06:44:39.674Z,37.80
2023-05-19T06:45:39.722Z,37.82
2023-05-19T06:46:39.725Z,37.85
2023-05-19T06:47:39.692Z,37.74
2023-05-19T06:48:39.681Z,37.75
2023-05-19T06:49:39.680Z,37.74
2023-05-19T06:50:39.665Z,37.71
2023-05-19T06:51:39.705Z,37.64
2023-05-19T06:52:39.732Z,37.61
2023-05-19T06:53:39.712Z,37.61
2023-05-19T06:54:39.716Z,37.71
2023-05-19T06:55:50.678Z,37.73
2023-05-19T06:56:40.748Z,37.71
2023-05-19T06:57:39.722Z,37.71
2023-05-19T06:58:39.724Z,37.67
2023-05-19T06:59:39.732Z,37.67
2023-05-19T07:00:39.678Z,37.74
2023-05-19T07:01:39.824Z,37.69
2023-05-19T07:02:39.726Z,37.72
2023-05-19T07:03:39.744Z,37.68
2023-05-19T07:04:39.677Z,37.61
2023-05-19T07:05:39.652Z,37.61
2023-05-19T07:06:39.633Z,37.50
2023-05-19T07:07:39.626Z,37.45
2023-05-19T07:08:39.633Z,37.35
2023-05-19T07:09:39.659Z,37.54
2023-05-19T07:10:39.670Z,37.60
2023-05-19T07:11:39.757Z,37.74
2023-05-19T07:12:39.757Z,37.74
2023-05-19T07:13:39.821Z,37.81
2023-05-19T07:14:39.835Z,37.94
2023-05-19T07:15:39.856Z,37.77
2023-05-19T07:16:39.933Z,37.85
2023-05-19T07:17:39.891Z,37.80
2023-05-19T07:18:39.931Z,37.95
2023-05-19T07:19:39.845Z,38.25
2023-05-19T07:20:39.835Z,38.39
2023-05-19T07:21:39.885Z,38.42
2023-05-19T07:22:40.006Z,38.56
2023-05-19T07:23:39.868Z,38.61
2023-05-19T07:24:39.877Z,38.63
2023-05-19T07:25:39.825Z,38.63
2023-05-19T07:26:39.848Z,38.71
2023-05-19T07:27:39.889Z,38.70
2023-05-19T07:28:41.600Z,38.67
2023-05-19T07:29:39.951Z,38.61
2023-05-19T07:30:39.967Z,38.67
2023-05-19T07:31:40.045Z,38.81
2023-05-19T07:32:40.081Z,38.77
2023-05-19T07:33:40.071Z,38.88
2023-05-19T07:34:40.128Z,38.90
2023-05-19T07:35:40.136Z,38.74
2023-05-19T07:36:40.163Z,38.84
2023-05-19T07:37:40.133Z,38.80
2023-05-19T07:38:40.188Z,38.93
2023-05-19T07:39:40.183Z,38.86
2023-05-19T07:40:40.179Z,38.82
2023-05-19T07:41:40.164Z,38.82
2023-05-19T07:42:40.196Z,38.81
2023-05-19T07:43:40.291Z,38.81
2023-05-19T07:44:40.262Z,38.77
2023-05-19T07:45:40.446Z,38.68
2023-05-19T07:46:40.400Z,38.65
2023-05-19T07:47:40.456Z,38.67
2023-05-19T07:48:40.496Z,38.66
2023-05-19T07:49:40.574Z,38.65
2023-05-19T07:50:40.578Z,38.71
2023-05-19T07:51:40.620Z,38.83
2023-05-19T07:52:40.632Z,38.88
2023-05-19T07:53:40.647Z,39.10
2023-05-19T07:54:40.639Z,39.21
2023-05-19T07:55:40.658Z,39.33
2023-05-19T07:56:40.660Z,39.26
2023-05-19T07:57:40.659Z,39.14
2023-05-19T07:58:40.661Z,39.02
2023-05-19T07:59:40.738Z,38.72
2023-05-19T08:00:40.668Z,38.77
2023-05-19T08:01:40.677Z,38.88
2023-05-19T08:02:40.740Z,39.01
2023-05-19T08:03:40.727Z,39.20
2023-05-19T08:04:40.730Z,39.32
2023-05-19T08:05:40.748Z,39.42
2023-05-19T08:06:40.714Z,39.54
2023-05-19T08:07:40.759Z,39.78
2023-05-19T08:08:40.780Z,39.87
2023-05-19T08:09:40.780Z,39.92
2023-05-19T08:10:40.802Z,39.98
2023-05-19T08:11:40.845Z,40.09
2023-05-19T08:12:40.874Z,40.03
2023-05-19T08:13:40.917Z,40.10
2023-05-19T08:14:40.975Z,40.21
2023-05-19T08:15:41.083Z,40.37
2023-05-19T08:16:41.052Z,40.46
2023-05-19T08:17:41.149Z,40.56
2023-05-19T08:18:41.142Z,40.71
2023-05-19T08:19:41.157Z,40.83
2023-05-19T08:20:41.253Z,40.90
2023-05-19T08:21:41.302Z,41.05
2023-05-19T08:22:41.355Z,40.98
2023-05-19T08:23:41.385Z,40.80
2023-05-19T08:24:41.444Z,40.79
2023-05-19T08:25:41.481Z,40.78
2023-05-19T08:26:41.512Z,40.90
2023-05-19T08:27:41.575Z,40.99
2023-05-19T08:28:42.192Z,41.01
2023-05-19T08:29:41.639Z,40.95
2023-05-19T08:30:41.689Z,40.91
2023-05-19T08:31:41.858Z,40.78
2023-05-19T08:32:41.867Z,40.62
2023-05-19T08:33:41.829Z,40.39
2023-05-19T08:34:41.897Z,40.37
2023-05-19T08:35:41.892Z,40.40
2023-05-19T08:36:41.934Z,40.65
2023-05-19T08:37:41.939Z,40.75
2023-05-19T08:38:41.974Z,40.87
2023-05-19T08:39:41.994Z,40.78
2023-05-19T08:40:42.070Z,40.69
2023-05-19T08:41:42.096Z,40.52
2023-05-19T08:42:42.116Z,40.54
2023-05-19T08:43:42.177Z,40.48
2023-05-19T08:44:42.242Z,40.38
2023-05-19T08:45:42.242Z,40.30
2023-05-19T08:46:42.318Z,40.22
2023-05-19T08:47:42.270Z,40.11
2023-05-19T08:48:42.277Z,40.00
2023-05-19T08:49:42.402Z,40.01
2023-05-19T08:50:42.333Z,39.87
2023-05-19T08:51:42.373Z,39.87
2023-05-19T08:52:42.384Z,40.00
2023-05-19T08:53:42.399Z,40.19
2023-05-19T08:54:42.372Z,40.14
2023-05-19T08:55:42.430Z,40.33
2023-05-19T08:56:42.437Z,40.25
2023-05-19T08:57:42.491Z,40.28
2023-05-19T08:58:42.479Z,40.42
2023-05-19T08:59:42.502Z,40.44
2023-05-19T09:00:42.550Z,40.47
2023-05-19T09:01:42.543Z,40.51
2023-05-19T09:02:50.620Z,40.38
2023-05-19T09:03:43.646Z,40.43
2023-05-19T09:04:42.611Z,40.46
2023-05-19T09:05:42.576Z,40.43
2023-05-19T09:06:42.565Z,40.47
2023-05-19T09:07:42.508Z,40.48
2023-05-19T09:08:42.594Z,40.67
2023-05-19T09:09:42.507Z,40.71
2023-05-19T09:10:42.493Z,40.76
2023-05-19T09:11:42.504Z,40.86
2023-05-19T09:12:42.478Z,41.02
2023-05-19T09:13:42.479Z,40.80
2023-05-19T09:14:42.444Z,40.77
2023-05-19T09:15:42.468Z,40.76
2023-05-19T09:16:42.474Z,40.79
2023-05-19T09:17:42.484Z,40.77
2023-05-19T09:18:42.505Z,40.72
2023-05-19T09:19:42.418Z,40.74
2023-05-19T09:20:42.456Z,40.72
2023-05-19T09:21:43.608Z,40.71
2023-05-19T09:22:42.460Z,40.59
2023-05-19T09:23:42.476Z,40.58
2023-05-19T09:24:42.499Z,40.61
2023-05-19T09:25:42.523Z,40.59
2023-05-19T09:26:42.526Z,40.57
2023-05-19T09:27:42.526Z,40.49
2023-05-19T09:28:42.538Z,40.31
2023-05-19T09:29:42.583Z,40.14
2023-05-19T09:30:42.613Z,40.20
2023-05-19T09:31:42.654Z,40.13
2023-05-19T09:32:43.560Z,39.93
2023-05-19T09:33:45.264Z,39.95
2023-05-19T09:34:42.656Z,40.02
2023-05-19T09:35:42.589Z,40.11
2023-05-19T09:36:42.618Z,40.14
2023-05-19T09:37:42.698Z,39.99
2023-05-19T09:38:42.576Z,39.86
2023-05-19T09:39:42.592Z,39.74
2023-05-19T09:40:42.571Z,39.82
2023-05-19T09:41:42.571Z,39.97
2023-05-19T09:42:42.545Z,40.05
2023-05-19T09:43:42.566Z,40.21
2023-05-19T09:44:42.506Z,40.23
2023-05-19T09:45:42.568Z,40.28
2023-05-19T09:46:42.652Z,40.24
2023-05-19T09:47:42.580Z,40.21
2023-05-19T09:48:42.588Z,40.23
2023-05-19T09:49:42.509Z,40.13
2023-05-19T09:50:42.498Z,39.87
2023-05-19T09:51:42.486Z,40.00
2023-05-19T09:52:42.486Z,40.02
2023-05-19T09:53:42.525Z,39.74
2023-05-19T09:54:42.464Z,39.85
2023-05-19T09:55:42.460Z,39.72
2023-05-19T09:56:42.466Z,39.77
2023-05-19T09:57:42.450Z,39.99
2023-05-19T09:58:42.428Z,39.99
2023-05-19T09:59:42.446Z,39.97
2023-05-19T10:00:42.427Z,39.83
2023-05-19T10:01:42.508Z,39.83
2023-05-19T10:02:42.474Z,39.86
2023-05-19T10:03:42.408Z,40.01
2023-05-19T10:04:42.438Z,39.98
2023-05-19T10:05:42.414Z,40.03
2023-05-19T10:06:42.404Z,40.18
2023-05-19T10:07:42.362Z,39.82
2023-05-19T10:08:42.453Z,39.87
2023-05-19T10:09:42.382Z,39.82
2023-05-19T10:10:42.342Z,39.85
2023-05-19T10:11:42.339Z,39.82
2023-05-19T10:12:42.372Z,39.80
2023-05-19T10:13:42.346Z,39.84
2023-05-19T10:14:42.367Z,39.88
2023-05-19T10:15:57.366Z,39.84
2023-05-19T10:16:43.329Z,39.84
2023-05-19T10:17:42.328Z,39.88
2023-05-19T10:18:42.335Z,39.83
2023-05-19T10:19:42.297Z,39.73
2023-05-19T10:20:42.277Z,39.59
2023-05-19T10:21:42.285Z,39.48
2023-05-19T10:22:42.253Z,39.32
2023-05-19T10:23:42.241Z,39.25
2023-05-19T10:24:42.270Z,39.25
2023-05-19T10:25:42.254Z,39.14
2023-05-19T10:26:42.276Z,39.13
2023-05-19T10:27:42.220Z,39.31
2023-05-19T10:28:42.234Z,39.44
2023-05-19T10:29:42.245Z,39.66
2023-05-19T10:30:42.219Z,39.71
2023-05-19T10:31:42.258Z,39.91
2023-05-19T10:32:42.234Z,39.96
2023-05-19T10:33:42.200Z,39.84
2023-05-19T10:34:42.220Z,39.84
2023-05-19T10:35:42.232Z,40.16
2023-05-19T10:36:42.250Z,40.25
2023-05-19T10:37:42.273Z,40.30
2023-05-19T10:38:42.363Z,40.36
2023-05-19T10:39:42.428Z,40.33
2023-05-19T10:40:42.471Z,40.40
2023-05-19T10:41:42.787Z,40.38
2023-05-19T10:42:42.595Z,40.37
2023-05-19T10:43:42.665Z,40.37
2023-05-19T10:44:42.720Z,40.47
2023-05-19T10:45:42.782Z,40.45
2023-05-19T10:46:42.924Z,40.33
2023-05-19T10:47:42.923Z,40.65
2023-05-19T10:48:42.984Z,40.61
2023-05-19T10:49:43.032Z,40.60
2023-05-19T10:50:43.086Z,40.48
2023-05-19T10:51:43.160Z,40.63
2023-05-19T10:52:43.214Z,40.64
2023-05-19T10:53:43.248Z,40.69
2023-05-19T10:54:43.429Z,40.67
2023-05-19T10:55:43.380Z,40.64
2023-05-19T10:56:43.502Z,40.49
2023-05-19T10:57:43.520Z,40.47
2023-05-19T10:58:43.637Z,40.44
2023-05-19T10:59:43.636Z,40.35
2023-05-19T11:00:43.714Z,40.32
2023-05-19T11:01:43.821Z,40.32
2023-05-19T11:02:43.912Z,40.29
2023-05-19T11:03:43.920Z,40.29
2023-05-19T11:04:43.925Z,40.31
2023-05-19T11:05:43.994Z,40.29
2023-05-19T11:06:44.081Z,40.32
2023-05-19T11:07:44.093Z,40.29
2023-05-19T11:08:44.159Z,40.29
2023-05-19T11:09:44.231Z,40.10
2023-05-19T11:10:44.309Z,39.97
2023-05-19T11:11:45.252Z,39.98
2023-05-19T11:12:44.360Z,39.94
2023-05-19T11:13:44.415Z,39.93
2023-05-19T11:14:45.269Z,39.89
2023-05-19T11:15:44.503Z,39.78
2023-05-19T11:16:44.548Z,39.68
2023-05-19T11:17:44.620Z,39.64
2023-05-19T11:18:44.627Z,39.79
2023-05-19T11:19:44.689Z,39.89
2023-05-19T11:20:44.732Z,39.87
2023-05-19T11:21:44.774Z,39.96
2023-05-19T11:22:44.808Z,40.05
2023-05-19T11:23:44.830Z,40.04
2023-05-19T11:24:44.851Z,39.91
2023-05-19T11:25:44.880Z,40.14
2023-05-19T11:26:44.933Z,40.02
2023-05-19T11:27:44.921Z,40.05
2023-05-19T11:28:44.963Z,40.16
2023-05-19T11:29:45.017Z,40.32
2023-05-19T11:30:45.048Z,40.31
2023-05-19T11:31:45.240Z,40.37
2023-05-19T11:32:45.196Z,40.51
2023-05-19T11:33:45.203Z,40.63
2023-05-19T11:34:45.222Z,40.62
2023-05-19T11:35:45.293Z,40.55
2023-05-19T11:36:45.363Z,40.66
2023-05-19T11:37:45.377Z,40.71
2023-05-19T11:38:45.427Z,40.80
2023-05-19T11:39:45.484Z,40.74
2023-05-19T11:40:45.480Z,40.92
2023-05-19T11:41:45.533Z,40.78
2023-05-19T11:42:45.587Z,40.89
2023-05-19T11:43:45.647Z,40.89
2023-05-19T11:44:45.662Z,40.99
2023-05-19T11:45:45.771Z,40.97
2023-05-19T11:46:45.817Z,41.12
2023-05-19T11:48:00.858Z,41.00
2023-05-19T11:48:46.836Z,41.01
2023-05-19T11:49:45.711Z,41.00
2023-05-19T11:50:45.736Z,41.05
2023-05-19T11:51:45.697Z,40.96
2023-05-19T11:52:45.735Z,40.82
2023-05-19T11:53:45.697Z,40.76
2023-05-19T11:54:45.706Z,40.65
2023-05-19T11:55:46.044Z,40.61
2023-05-19T11:56:45.669Z,40.59
2023-05-19T11:57:56.091Z,40.43
2023-05-19T11:58:46.683Z,40.36
2023-05-19T11:59:45.810Z,40.36
2023-05-19T12:00:45.681Z,40.48
2023-05-19T12:01:45.660Z,40.52
2023-05-19T12:02:45.805Z,40.55
2023-05-19T12:03:45.799Z,40.59
2023-05-19T12:04:45.705Z,40.88
2023-05-19T12:05:46.037Z,40.81
2023-05-19T12:06:45.669Z,40.87
2023-05-19T12:07:45.599Z,40.80
2023-05-19T12:08:45.606Z,40.81
2023-05-19T12:09:45.587Z,40.93
2023-05-19T12:10:45.599Z,41.13
2023-05-19T12:11:45.591Z,41.09
2023-05-19T12:12:45.558Z,41.24
2023-05-19T12:13:45.560Z,41.36
2023-05-19T12:14:45.574Z,41.35
2023-05-19T12:15:45.641Z,41.34
2023-05-19T12:16:45.651Z,41.39
2023-05-19T12:17:45.587Z,41.29
2023-05-19T12:18:45.587Z,41.17
2023-05-19T12:19:45.540Z,41.13
2023-05-19T12:20:45.520Z,41.22
2023-05-19T12:21:45.529Z,41.31
2023-05-19T12:22:45.566Z,41.25
2023-05-19T12:23:45.576Z,41.16
2023-05-19T12:24:45.576Z,41.15
2023-05-19T12:25:45.660Z,41.10
2023-05-19T12:26:45.636Z,41.08
2023-05-19T12:27:45.647Z,41.08
2023-05-19T12:28:45.633Z,41.10
2023-05-19T12:29:45.673Z,41.10
2023-05-19T12:30:45.722Z,41.06
2023-05-19T12:31:45.741Z,41.06
2023-05-19T12:32:45.828Z,40.97
2023-05-19T12:33:45.794Z,40.93
2023-05-19T12:34:45.816Z,40.86
2023-05-19T12:35:45.828Z,40.76
2023-05-19T12:36:45.872Z,40.78
2023-05-19T12:37:45.869Z,40.63
2023-05-19T12:38:45.899Z,40.71
2023-05-19T12:39:45.955Z,40.58
2023-05-19T12:40:45.959Z,40.61
2023-05-19T12:41:46.038Z,40.70
2023-05-19T12:42:46.064Z,40.72
2023-05-19T12:43:46.085Z,40.90
2023-05-19T12:44:46.079Z,40.92
2023-05-19T12:45:46.140Z,40.99
2023-05-19T12:46:46.179Z,40.95
2023-05-19T12:47:46.212Z,41.10
2023-05-19T12:48:46.224Z,41.11
2023-05-19T12:49:46.300Z,41.13
2023-05-19T12:50:46.264Z,41.25
2023-05-19T12:51:46.325Z,41.30
2023-05-19T12:52:46.305Z,41.34